Time;durP1;ratioP1;P1;durP2;ratioP2;P2;SDS_P1;SDS_P2;PMS_P1;PMS_P2;Temp;Humidity;BMP_temperature;BMP_pressure;BME280_temperature;BME280_humidity;BME280_pressure;Samples;Min_cycle;Max_cycle;Signal;HPM_P1;HPM_P2
2022/10/26 00:01:04;;;;;;;6.80;3.50;;;;;;;13.32;79.45;98312.38;7387918;19;20492;-76
2022/10/26 00:03:32;;;;;;;7.80;3.78;;;;;;;13.46;79.36;98321.44;7388857;19;20006;-76
2022/10/26 00:06:10;;;;;;;9.48;3.22;;;;;;;13.58;78.73;98320.84;7386351;19;20023;-76
2022/10/26 00:08:37;;;;;;;7.38;2.97;;;;;;;13.68;77.99;98319.78;7384610;19;20022;-75
2022/10/26 00:11:05;;;;;;;8.55;3.50;;;;;;;13.69;77.67;98314.31;7384613;19;20031;-76
2022/10/26 00:13:33;;;;;;;7.68;3.25;;;;;;;13.72;77.60;98315.78;7384644;19;20031;-76
2022/10/26 00:15:59;;;;;;;6.38;3.17;;;;;;;13.69;77.64;98310.81;7387914;19;20014;-76
2022/10/26 00:18:26;;;;;;;7.90;3.40;;;;;;;13.72;77.94;98321.13;7387950;19;20489;-76
2022/10/26 00:20:53;;;;;;;7.78;3.22;;;;;;;13.67;78.00;98316.31;7389447;19;20019;-76
2022/10/26 00:23:20;;;;;;;7.32;3.08;;;;;;;13.67;78.15;98328.78;7389189;19;20014;-76
2022/10/26 00:25:53;;;;;;;15.57;3.38;;;;;;;13.52;78.67;98318.91;7387465;19;20019;-76
2022/10/26 00:28:20;;;;;;;11.57;3.58;;;;;;;13.66;78.46;98321.81;7384985;19;20043;-76
2022/10/26 00:30:46;;;;;;;7.18;2.80;;;;;;;13.54;78.60;98329.38;7385728;19;20015;-76
2022/10/26 00:33:13;;;;;;;8.73;3.00;;;;;;;13.58;78.53;98328.81;7383663;19;20379;-76
2022/10/26 00:35:40;;;;;;;5.35;3.00;;;;;;;13.59;78.46;98325.16;7380321;19;20040;-76
2022/10/26 00:38:12;;;;;;;8.32;3.35;;;;;;;13.51;78.73;98322.56;7383913;19;20038;-76
2022/10/26 00:40:39;;;;;;;9.93;3.38;;;;;;;13.42;78.98;98314.81;7388867;19;20018;-76
2022/10/26 00:43:14;;;;;;;13.02;3.13;;;;;;;13.63;78.37;98312.34;7384010;19;20038;-76
2022/10/26 00:45:42;;;;;;;8.38;2.78;;;;;;;13.59;78.58;98313.72;7385631;19;20049;-76
2022/10/26 00:48:21;;;;;;;7.90;2.80;;;;;;;13.61;78.67;98312.53;7382100;19;20014;-76
2022/10/26 00:50:49;;;;;;;7.47;2.72;;;;;;;13.58;78.33;98317.38;7384405;19;20015;-76
2022/10/26 00:53:16;;;;;;;8.00;3.45;;;;;;;13.61;78.39;98324.97;7386957;19;20031;-76
2022/10/26 00:55:46;;;;;;;9.82;3.40;;;;;;;13.65;78.11;98325.47;7384252;19;20493;-76
2022/10/26 00:58:13;;;;;;;8.52;3.40;;;;;;;13.59;78.53;98322.50;7383049;19;20389;-76
2022/10/26 01:00:40;;;;;;;10.93;3.35;;;;;;;13.64;78.08;98323.81;7383413;19;20010;-76
2022/10/26 01:03:08;;;;;;;7.45;2.95;;;;;;;13.60;78.45;98321.50;7381831;19;20588;-76
2022/10/26 01:05:38;;;;;;;6.85;3.40;;;;;;;13.56;78.24;98328.19;7385288;19;20025;-76
2022/10/26 01:08:06;;;;;;;10.25;2.80;;;;;;;13.65;78.33;98322.81;7383529;19;20019;-76
2022/10/26 01:10:34;;;;;;;7.93;3.15;;;;;;;13.67;78.07;98329.59;7386682;19;20019;-76
2022/10/26 01:13:01;;;;;;;8.55;2.88;;;;;;;13.72;77.93;98329.09;7385000;19;20018;-76
2022/10/26 01:15:42;;;;;;;8.65;3.20;;;;;;;13.61;78.15;98325.84;7382365;19;20014;-76
2022/10/26 01:18:21;;;;;;;12.75;4.22;;;;;;;13.55;78.66;98329.16;7383274;19;20048;-76
2022/10/26 01:21:12;;;;;;;10.82;2.95;;;;;;;13.66;78.47;98321.81;7383498;19;20022;-76
2022/10/26 01:23:58;;;;;;;7.30;3.00;;;;;;;13.58;78.05;98320.03;7385979;19;20514;-76
2022/10/26 01:26:47;;;;;;;6.50;3.10;;;;;;;13.47;78.63;98318.59;7385826;19;20030;-76
2022/10/26 01:29:21;;;;;;;9.27;3.60;;;;;;;13.49;79.22;98311.28;7384037;19;20513;-76
2022/10/26 01:31:56;;;;;;;8.68;3.53;;;;;;;13.49;79.05;98305.97;7380567;19;20026;-76
2022/10/26 01:35:12;;;;;;;5.38;2.97;;;;;;;13.37;79.54;98308.19;7383528;19;20082;-76
2022/10/26 01:37:46;;;;;;;6.75;3.33;;;;;;;13.53;79.50;98303.78;7379728;19;20010;-76
2022/10/26 01:40:24;;;;;;;7.18;3.15;;;;;;;13.54;79.07;98302.78;7382920;19;20010;-76
2022/10/26 01:42:53;;;;;;;5.55;3.13;;;;;;;13.50;79.21;98289.00;7383474;19;20027;-76
2022/10/26 01:45:20;;;;;;;6.78;2.90;;;;;;;13.39;79.27;98284.09;7386867;19;20355;-76
2022/10/26 01:47:47;;;;;;;5.20;3.03;;;;;;;13.36;79.60;98290.59;7386018;19;20019;-76
2022/10/26 01:50:14;;;;;;;5.18;3.38;;;;;;;13.34;79.85;98289.13;7386284;19;20039;-76
2022/10/26 01:52:41;;;;;;;6.88;3.10;;;;;;;13.39;79.96;98284.09;7390618;19;20011;-76
2022/10/26 01:55:40;;;;;;;9.05;3.33;;;;;;;13.36;79.98;98285.28;7391811;19;20015;-76
2022/10/26 01:58:27;;;;;;;6.15;3.67;;;;;;;13.52;79.66;98294.97;7389570;19;20049;-76
2022/10/26 02:01:00;;;;;;;7.53;3.90;;;;;;;13.53;79.56;98282.50;7387308;19;20015;-76
2022/10/26 02:03:52;;;;;;;;;;;;;;;13.41;80.10;98271.47;7392913;19;20052;-76
2022/10/26 02:06:31;;;;;;;6.80;3.45;;;;;;;13.49;80.06;98281.22;7391707;19;19919;-76
2022/10/26 02:09:17;;;;;;;13.50;3.58;;;;;;;13.40;80.27;98285.75;7388403;19;20010;-76
2022/10/26 02:11:45;;;;;;;6.50;3.25;;;;;;;13.45;79.86;98277.25;7388935;19;20524;-76
2022/10/26 02:14:18;;;;;;;11.38;3.75;;;;;;;13.36;80.33;98273.81;7392859;19;20078;-76
2022/10/26 02:16:45;;;;;;;;;;;;;;;13.31;80.53;98261.06;7390328;19;20014;-76
2022/10/26 02:19:26;;;;;;;8.90;3.60;;;;;;;13.31;80.56;98260.25;7394503;19;19934;-76
2022/10/26 02:21:59;;;;;;;9.98;3.70;;;;;;;13.32;80.40;98251.25;7389622;19;20034;-76
2022/10/26 02:24:27;;;;;;;4.75;2.95;;;;;;;13.26;80.52;98249.28;7392080;19;20014;-76
2022/10/26 02:26:55;;;;;;;8.27;3.60;;;;;;;13.19;81.04;98246.50;7389194;19;20048;-76
2022/10/26 02:29:22;;;;;;;5.30;3.28;;;;;;;13.18;80.98;98256.28;7392846;19;20022;-76
2022/10/26 02:31:50;;;;;;;6.60;3.33;;;;;;;13.14;80.94;98262.97;7389878;19;20038;-76
2022/10/26 02:34:21;;;;;;;7.55;3.85;;;;;;;13.09;81.08;98281.25;7390858;19;20014;-76
2022/10/26 02:36:48;;;;;;;8.90;3.65;;;;;;;13.13;81.30;98274.56;7386600;19;20026;-76
2022/10/26 02:39:16;;;;;;;15.40;3.65;;;;;;;13.21;80.55;98281.69;7386587;19;20010;-76
2022/10/26 02:41:43;;;;;;;5.40;3.75;;;;;;;13.30;80.34;98285.16;7387416;19;20022;-76
2022/10/26 02:44:14;;;;;;;5.55;3.42;;;;;;;13.30;80.25;98296.63;7388569;19;20014;-76
2022/10/26 02:46:41;;;;;;;6.43;3.58;;;;;;;13.30;80.28;98293.13;7389332;19;20018;-76
2022/10/26 02:49:09;;;;;;;8.23;3.83;;;;;;;13.30;80.25;98301.13;7389223;19;20019;-76
2022/10/26 02:51:39;;;;;;;9.73;4.18;;;;;;;13.26;80.15;98299.75;7390566;19;20014;-76
2022/10/26 02:54:16;;;;;;;9.73;3.85;;;;;;;13.13;80.57;98303.78;7392070;19;20015;-76
2022/10/26 02:56:45;;;;;;;6.80;3.63;;;;;;;13.20;80.81;98295.97;7387814;19;20018;-76
2022/10/26 02:59:12;;;;;;;11.13;4.53;;;;;;;13.27;80.23;98296.13;7386835;19;20097;-76
2022/10/26 03:01:39;;;;;;;9.63;4.30;;;;;;;13.08;80.40;98287.56;7386214;19;20018;-76
2022/10/26 03:04:06;;;;;;;10.77;4.10;;;;;;;13.03;81.11;98284.59;7389913;19;20089;-76
2022/10/26 03:06:33;;;;;;;8.18;3.95;;;;;;;13.13;81.24;98301.16;7390301;19;20047;-76
2022/10/26 03:08:59;;;;;;;9.32;4.03;;;;;;;13.17;80.85;98302.47;7386404;19;20752;-76
2022/10/26 03:11:26;;;;;;;7.60;3.90;;;;;;;13.17;80.65;98289.19;7387175;19;20014;-76
2022/10/26 03:13:53;;;;;;;5.90;3.95;;;;;;;13.14;80.92;98297.50;7389653;19;20010;-76
2022/10/26 03:16:19;;;;;;;6.97;3.88;;;;;;;13.14;80.80;98297.50;7386217;19;20035;-76
2022/10/26 03:18:46;;;;;;;7.03;3.30;;;;;;;13.15;80.82;98308.94;7390183;19;20053;-76
2022/10/26 03:21:13;;;;;;;9.13;3.55;;;;;;;13.19;80.18;98315.56;7388420;19;20018;-76
2022/10/26 03:23:40;;;;;;;4.82;3.42;;;;;;;13.07;80.13;98320.44;7391268;19;20027;-76
2022/10/26 03:26:07;;;;;;;5.35;3.10;;;;;;;13.07;80.38;98320.44;7391929;19;20015;-76
2022/10/26 03:28:34;;;;;;;10.80;3.67;;;;;;;13.05;80.61;98333.06;7390507;19;20049;-76
2022/10/26 03:31:00;;;;;;;8.05;3.88;;;;;;;13.06;81.24;98331.22;7386766;19;20385;-76
2022/10/26 03:33:27;;;;;;;7.30;3.80;;;;;;;13.14;81.07;98329.38;7390297;19;20350;-76
2022/10/26 03:35:55;;;;;;;9.85;3.35;;;;;;;13.13;81.54;98333.03;7389716;19;20031;-76
2022/10/26 03:38:22;;;;;;;9.02;3.88;;;;;;;13.13;81.41;98338.31;7385513;19;20022;-76
2022/10/26 03:40:49;;;;;;;9.15;3.70;;;;;;;13.10;81.53;98337.84;7386997;19;20044;-76
2022/10/26 03:43:16;;;;;;;7.70;3.60;;;;;;;13.20;81.57;98340.31;7389090;19;20011;-76
2022/10/26 03:45:42;;;;;;;5.13;3.22;;;;;;;13.22;81.44;98341.78;7386070;19;20044;-76
2022/10/26 03:48:09;;;;;;;7.60;3.33;;;;;;;13.27;81.36;98347.44;7386580;19;20022;-76
2022/10/26 03:50:36;;;;;;;7.35;4.15;;;;;;;13.31;81.32;98356.72;7385056;19;20018;-76
2022/10/26 03:53:02;;;;;;;8.35;4.07;;;;;;;13.26;81.26;98351.09;7385519;19;20672;-76
2022/10/26 03:55:29;;;;;;;7.88;3.72;;;;;;;13.15;81.63;98344.31;7386524;19;20059;-76
2022/10/26 03:57:56;;;;;;;6.25;3.58;;;;;;;13.13;81.83;98343.63;7387102;19;20485;-76
2022/10/26 04:00:22;;;;;;;5.63;3.63;;;;;;;13.15;82.22;98346.13;7390581;19;20694;-76
2022/10/26 04:02:54;;;;;;;8.10;3.78;;;;;;;13.20;82.21;98348.28;7388333;19;20022;-76
2022/10/26 04:05:22;;;;;;;6.97;4.10;;;;;;;13.21;82.18;98334.81;7388747;19;20031;-76
2022/10/26 04:07:53;;;;;;;10.60;4.10;;;;;;;13.21;82.38;98336.66;7385721;19;20010;-76
2022/10/26 04:10:20;;;;;;;8.88;3.80;;;;;;;13.21;82.59;98323.38;7387366;19;20048;-77
2022/10/26 04:12:47;;;;;;;6.05;3.35;;;;;;;13.28;82.50;98325.19;7387672;19;20054;-76
2022/10/26 04:15:15;;;;;;;10.48;3.83;;;;;;;13.17;82.39;98318.41;7387400;19;20014;-76
2022/10/26 04:17:41;;;;;;;7.47;3.40;;;;;;;13.16;82.37;98315.91;7384940;19;20031;-76
2022/10/26 04:20:08;;;;;;;9.70;3.78;;;;;;;13.07;82.39;98301.03;7384325;19;20035;-76
2022/10/26 04:22:35;;;;;;;8.75;3.88;;;;;;;13.14;82.35;98307.31;7384701;19;20018;-76
2022/10/26 04:25:03;;;;;;;7.93;3.55;;;;;;;13.12;82.18;98304.00;7387633;19;20018;-76
2022/10/26 04:27:29;;;;;;;6.07;3.67;;;;;;;13.08;82.21;98292.03;7389422;19;20027;-76
2022/10/26 04:29:56;;;;;;;6.30;3.50;;;;;;;13.07;82.15;98295.72;7387461;19;20493;-76
2022/10/26 04:32:23;;;;;;;8.15;3.65;;;;;;;13.04;82.39;98294.22;7384720;19;20481;-76
2022/10/26 04:34:49;;;;;;;7.53;3.67;;;;;;;13.10;82.29;98292.72;7385895;19;20031;-76
2022/10/26 04:37:16;;;;;;;7.90;3.65;;;;;;;13.21;82.49;98302.94;7387446;19;20550;-76
2022/10/26 04:39:43;;;;;;;10.38;3.75;;;;;;;13.24;82.16;98299.91;7384622;19;20081;-77
2022/10/26 04:42:09;;;;;;;8.57;3.55;;;;;;;13.35;82.50;98298.75;7388110;19;20039;-76
2022/10/26 04:44:36;;;;;;;8.85;3.58;;;;;;;13.48;81.98;98309.63;7389529;19;20022;-76
2022/10/26 04:47:02;;;;;;;9.02;3.42;;;;;;;13.56;81.48;98312.25;7384480;19;20388;-76
2022/10/26 04:49:29;;;;;;;9.43;3.47;;;;;;;13.50;81.75;98314.75;7386410;19;20019;-76
2022/10/26 04:51:56;;;;;;;11.30;3.20;;;;;;;13.60;81.48;98310.88;7385591;19;20419;-76
2022/10/26 04:54:22;;;;;;;5.32;3.03;;;;;;;13.61;81.16;98299.25;7385160;19;20094;-76
2022/10/26 04:56:50;;;;;;;7.68;3.40;;;;;;;13.57;81.38;98311.22;7383001;19;20018;-76
2022/10/26 04:59:17;;;;;;;5.60;3.78;;;;;;;13.58;81.17;98309.38;7382669;19;20011;-76
2022/10/26 05:01:44;;;;;;;8.52;3.80;;;;;;;13.63;81.07;98300.88;7386183;19;20018;-76
2022/10/26 05:04:11;;;;;;;9.40;3.63;;;;;;;13.64;81.38;98295.41;7388641;19;20126;-76
2022/10/26 05:06:38;;;;;;;8.77;2.95;;;;;;;13.63;81.35;98295.56;7384889;19;20018;-76
2022/10/26 05:09:04;;;;;;;12.38;3.10;;;;;;;13.76;81.51;98298.47;7382851;19;20007;-77
2022/10/26 05:11:31;;;;;;;9.18;3.00;;;;;;;13.73;81.40;98288.19;7383148;19;20022;-77
2022/10/26 05:13:58;;;;;;;5.07;3.40;;;;;;;13.79;81.31;98303.44;7378272;19;20014;-75
2022/10/26 05:16:24;;;;;;;6.47;2.85;;;;;;;13.85;81.15;98302.72;7384637;19;20060;-76
2022/10/26 05:18:51;;;;;;;6.53;3.10;;;;;;;13.81;81.71;98307.56;7385584;19;20031;-75
2022/10/26 05:21:18;;;;;;;5.32;3.30;;;;;;;13.83;81.52;98313.53;7390373;19;20018;-76
2022/10/26 05:23:51;;;;;;;6.28;3.22;;;;;;;13.86;81.40;98315.00;7392147;19;20031;-76
2022/10/26 05:26:18;;;;;;;5.22;3.00;;;;;;;13.97;81.06;98317.25;7388189;19;20024;-76
2022/10/26 05:28:45;;;;;;;4.50;3.28;;;;;;;13.96;81.13;98318.25;7390809;19;20031;-76
2022/10/26 05:31:12;;;;;;;5.05;3.13;;;;;;;13.97;80.77;98324.41;7390833;19;20536;-76
2022/10/26 05:33:39;;;;;;;6.15;3.17;;;;;;;13.96;80.78;98320.91;7391480;19;20522;-76
2022/10/26 05:36:06;;;;;;;9.60;3.05;;;;;;;13.98;80.77;98329.56;7388089;19;20018;-76
2022/10/26 05:38:33;;;;;;;5.13;2.95;;;;;;;14.02;80.76;98327.34;7390248;19;20015;-76
2022/10/26 05:41:00;;;;;;;6.13;3.20;;;;;;;14.00;80.75;98335.50;7386152;19;20014;-76
2022/10/26 05:43:27;;;;;;;6.13;2.80;;;;;;;13.99;81.04;98333.84;7386642;19;20687;-76
2022/10/26 05:45:53;;;;;;;8.13;3.42;;;;;;;13.92;81.33;98337.41;7389962;19;20010;-76
2022/10/26 05:48:20;;;;;;;7.90;3.10;;;;;;;14.00;81.30;98340.00;7384180;19;20103;-76
2022/10/26 05:50:47;;;;;;;4.70;3.03;;;;;;;14.06;81.25;98341.97;7391092;19;20019;-75
2022/10/26 05:53:13;;;;;;;12.13;3.60;;;;;;;14.15;80.91;98348.03;7392924;19;20014;-76
2022/10/26 05:55:41;;;;;;;4.07;2.92;;;;;;;14.13;80.97;98347.38;7390985;19;20022;-76
2022/10/26 05:58:12;;;;;;;8.23;3.05;;;;;;;14.13;81.23;98348.19;7388705;19;20011;-76
2022/10/26 06:01:06;;;;;;;5.38;3.00;;;;;;;14.23;81.17;98346.13;7391092;19;20011;-76
2022/10/26 06:03:39;;;;;;;6.53;2.67;;;;;;;14.28;80.84;98349.06;7389559;19;20022;-76
2022/10/26 06:06:06;;;;;;;5.93;2.80;;;;;;;14.30;80.91;98353.38;7392378;19;20022;-76
2022/10/26 06:08:33;;;;;;;8.98;3.65;;;;;;;14.30;81.03;98358.69;7394584;19;20089;-75
2022/10/26 06:11:01;;;;;;;9.75;3.67;;;;;;;14.32;81.35;98352.19;7393428;19;20035;-76
2022/10/26 06:13:28;;;;;;;6.90;2.67;;;;;;;14.28;81.17;98361.56;7376039;19;20014;-76
2022/10/26 06:16:40;;;;;;;10.57;3.10;;;;;;;14.42;80.75;98370.56;7388486;19;20052;-76
2022/10/26 06:19:28;;;;;;;6.60;2.65;;;;;;;14.51;80.44;98382.81;7390415;19;20568;-76
2022/10/26 06:22:00;;;;;;;4.40;2.45;;;;;;;14.49;80.47;98380.31;7389649;19;20031;-76
2022/10/26 06:24:39;;;;;;;7.55;2.72;;;;;;;14.58;79.92;98390.94;7392660;19;20057;-75
2022/10/26 06:27:15;;;;;;;6.80;3.58;;;;;;;14.58;79.66;98406.91;7389694;19;20043;-76
2022/10/26 06:30:11;;;;;;;7.13;3.25;;;;;;;14.54;79.65;98413.59;7385872;19;20018;-76
2022/10/26 06:32:39;;;;;;;5.63;2.65;;;;;;;14.53;80.30;98426.06;7388759;19;20010;-75
2022/10/26 06:35:21;;;;;;;9.25;2.88;;;;;;;14.47;80.20;98427.59;7389708;19;20018;-76
2022/10/26 06:37:48;;;;;;;8.27;3.00;;;;;;;14.39;80.63;98425.00;7387512;19;20019;-76
2022/10/26 06:40:16;;;;;;;6.38;2.90;;;;;;;14.37;81.06;98432.31;7392563;19;20017;-76
2022/10/26 06:42:43;;;;;;;5.47;2.83;;;;;;;14.31;81.01;98422.41;7391596;19;20014;-75
2022/10/26 06:45:12;;;;;;;9.05;3.42;;;;;;;14.28;81.39;98425.44;7392134;19;20018;-76
2022/10/26 06:48:03;;;;;;;9.45;3.50;;;;;;;14.26;81.36;98424.78;7389023;19;20031;-76
2022/10/26 06:50:41;;;;;;;7.00;3.65;;;;;;;14.22;81.64;98428.81;7389879;19;20022;-76
2022/10/26 06:53:36;;;;;;;10.20;3.72;;;;;;;14.24;81.61;98427.63;7390916;19;20042;-75
2022/10/26 06:56:02;;;;;;;36.08;4.07;;;;;;;14.32;81.94;98429.38;7386382;19;20049;-76
2022/10/26 06:58:33;;;;;;;12.10;3.25;;;;;;;14.32;81.74;98439.19;7391437;19;20018;-76
2022/10/26 07:01:00;;;;;;;6.25;3.25;;;;;;;14.30;81.70;98439.38;7389424;19;20015;-76
2022/10/26 07:03:27;;;;;;;6.68;3.42;;;;;;;14.34;81.68;98439.84;7387040;19;20022;-76
2022/10/26 07:05:53;;;;;;;5.22;3.50;;;;;;;14.31;81.93;98449.00;7386745;19;20075;-75
2022/10/26 07:08:20;;;;;;;8.30;4.20;;;;;;;14.33;81.93;98444.34;7383777;19;20039;-76
2022/10/26 07:10:47;;;;;;;11.60;4.05;;;;;;;14.34;81.95;98453.97;7386062;19;20101;-76
2022/10/26 07:13:14;;;;;;;8.95;4.13;;;;;;;14.38;81.79;98454.47;7388773;19;20022;-76
2022/10/26 07:15:41;;;;;;;6.55;3.40;;;;;;;14.42;81.86;98451.25;7390212;19;20035;-75
2022/10/26 07:18:08;;;;;;;7.28;3.40;;;;;;;14.44;81.71;98459.06;7388255;19;20372;-76
2022/10/26 07:20:39;;;;;;;6.60;3.42;;;;;;;14.42;82.00;98461.06;7385951;19;20776;-76
2022/10/26 07:23:09;;;;;;;5.65;3.35;;;;;;;14.48;82.02;98465.69;7387951;19;20039;-76
2022/10/26 07:25:38;;;;;;;7.93;3.30;;;;;;;14.54;82.11;98461.53;7388606;19;20390;-76
2022/10/26 07:28:08;;;;;;;5.70;3.08;;;;;;;14.63;81.17;98466.59;7387299;19;20040;-76
2022/10/26 07:30:36;;;;;;;11.48;3.80;;;;;;;14.73;80.81;98462.88;7390608;19;20031;-76
2022/10/26 07:33:05;;;;;;;6.65;3.40;;;;;;;14.76;80.50;98463.31;7391000;19;20014;-76
2022/10/26 07:35:33;;;;;;;4.55;3.20;;;;;;;14.65;80.68;98471.75;7386761;19;20026;-75
2022/10/26 07:38:00;;;;;;;5.65;3.00;;;;;;;14.60;80.87;98474.94;7387786;19;20486;-76
2022/10/26 07:40:27;;;;;;;6.38;2.78;;;;;;;14.62;81.28;98480.09;7390021;19;20039;-76
2022/10/26 07:42:58;;;;;;;4.53;2.58;;;;;;;14.64;81.24;98476.25;7389352;19;20018;-76
2022/10/26 07:45:26;;;;;;;6.07;3.33;;;;;;;14.58;81.42;98482.28;7387910;19;20042;-76
2022/10/26 07:47:53;;;;;;;6.30;3.40;;;;;;;14.65;81.49;98482.41;7388705;19;20518;-76
2022/10/26 07:50:26;;;;;;;9.57;3.42;;;;;;;14.60;81.59;98490.09;7387736;19;20006;-76
2022/10/26 07:52:53;;;;;;;8.10;3.28;;;;;;;14.63;81.65;98497.72;7388740;19;20010;-76
2022/10/26 07:55:20;;;;;;;8.55;3.35;;;;;;;14.61;81.62;98495.25;7387322;19;20034;-76
2022/10/26 07:57:47;;;;;;;8.18;4.05;;;;;;;14.65;82.03;98493.03;7384732;19;20603;-76
2022/10/26 08:00:20;;;;;;;7.85;3.67;;;;;;;14.77;81.85;98496.09;7388527;19;20074;-76
2022/10/26 08:02:46;;;;;;;6.07;3.53;;;;;;;14.87;81.92;98505.50;7390127;19;20039;-75
2022/10/26 08:05:13;;;;;;;5.63;3.55;;;;;;;14.87;81.97;98502.81;7387546;19;20616;-76
2022/10/26 08:07:41;;;;;;;5.78;3.58;;;;;;;14.95;82.00;98507.25;7387169;19;20014;-76
2022/10/26 08:10:09;;;;;;;6.78;4.25;;;;;;;14.94;82.06;98489.63;7386054;19;20509;-76
2022/10/26 08:12:36;;;;;;;8.30;3.72;;;;;;;14.99;82.30;98489.91;7384425;19;20531;-76
2022/10/26 08:15:03;;;;;;;6.75;4.68;;;;;;;15.11;82.27;98490.28;7387099;19;20549;-76
2022/10/26 08:17:29;;;;;;;13.48;4.53;;;;;;;15.21;81.92;98493.53;7386998;19;20018;-75
2022/10/26 08:19:56;;;;;;;11.15;4.10;;;;;;;15.30;81.53;98495.09;7390046;19;20010;-75
2022/10/26 08:22:23;;;;;;;6.07;3.92;;;;;;;15.43;80.32;98493.63;7389607;19;20045;-76
2022/10/26 08:24:49;;;;;;;11.77;3.65;;;;;;;15.51;79.46;98497.03;7387384;19;20039;-76
2022/10/26 08:27:16;;;;;;;15.32;4.70;;;;;;;15.62;79.08;98490.41;7383841;19;20021;-76
2022/10/26 08:29:43;;;;;;;10.23;3.95;;;;;;;15.63;78.95;98491.25;7377725;19;20043;-75
2022/10/26 08:32:10;;;;;;;9.93;3.55;;;;;;;15.63;78.89;98486.72;7388488;19;20631;-76
2022/10/26 08:34:36;;;;;;;8.60;3.65;;;;;;;15.64;79.04;98488.41;7386042;19;20554;-75
2022/10/26 08:37:03;;;;;;;9.93;2.80;;;;;;;15.66;78.49;98486.34;7385837;19;20022;-76
2022/10/26 08:39:30;;;;;;;10.25;3.20;;;;;;;15.72;78.44;98488.31;7381785;19;20053;-76
2022/10/26 08:42:05;;;;;;;8.68;3.15;;;;;;;15.77;78.49;98487.75;7388894;19;20018;-75
2022/10/26 08:44:36;;;;;;;6.28;2.70;;;;;;;15.83;78.55;98492.34;7383754;19;20011;-75
2022/10/26 08:47:22;;;;;;;7.47;2.65;;;;;;;15.86;78.67;98493.81;7387480;19;20010;-76
2022/10/26 08:50:31;;;;;;;5.25;2.95;;;;;;;15.89;77.62;98501.44;7380753;19;20022;-75
2022/10/26 08:53:13;;;;;;;5.60;2.70;;;;;;;15.91;77.46;98508.25;7382142;19;20060;-76
2022/10/26 08:55:43;;;;;;;7.07;3.17;;;;;;;15.91;77.21;98505.59;7383141;19;20018;-76
2022/10/26 08:58:14;;;;;;;10.32;2.78;;;;;;;16.05;77.50;98508.41;7384844;19;20035;-76
2022/10/26 09:00:41;;;;;;;8.87;3.60;;;;;;;16.15;77.94;98520.44;7383174;19;20022;-76
2022/10/26 09:03:15;;;;;;;6.78;3.40;;;;;;;16.25;77.37;98525.50;7386662;19;20073;-76
2022/10/26 09:05:47;;;;;;;7.90;3.40;;;;;;;16.26;77.19;98518.31;7383326;19;20055;-76
2022/10/26 09:08:18;;;;;;;6.18;3.63;;;;;;;16.29;77.41;98523.25;7382950;19;20028;-75
2022/10/26 09:11:05;;;;;;;7.15;4.22;;;;;;;16.44;77.44;98529.38;7388254;19;20601;-76
2022/10/26 09:13:54;;;;;;;4.85;3.20;;;;;;;16.48;77.51;98527.97;7386119;19;20541;-76
2022/10/26 09:16:32;;;;;;;7.88;2.80;;;;;;;16.55;77.08;98536.06;7383564;19;20031;-76
2022/10/26 09:19:23;;;;;;;8.40;2.70;;;;;;;16.60;77.00;98537.16;7382209;19;20030;-76
2022/10/26 09:22:17;;;;;;;7.05;2.70;;;;;;;16.74;77.06;98542.63;7385831;19;20022;-76
2022/10/26 09:24:51;;;;;;;6.75;3.28;;;;;;;16.86;77.16;98551.81;7383063;19;20031;-76
2022/10/26 09:27:34;;;;;;;7.00;2.78;;;;;;;16.99;77.20;98551.13;7382022;19;20397;-76
2022/10/26 09:30:03;;;;;;;;;;;;;;;16.96;75.98;98552.31;7387161;19;20022;-75
2022/10/26 09:32:37;;;;;;;5.15;3.13;;;;;;;17.05;76.16;98547.66;7386490;19;19939;-75
2022/10/26 09:35:24;;;;;;;7.60;2.83;;;;;;;17.13;76.10;98552.84;7384594;19;20031;-76
2022/10/26 09:38:05;;;;;;;9.15;2.70;;;;;;;17.10;75.77;98558.59;7380847;19;20057;-76
2022/10/26 09:40:40;;;;;;;6.03;2.85;;;;;;;17.16;75.59;98568.50;7384009;19;20015;-75
2022/10/26 09:43:11;;;;;;;9.40;3.30;;;;;;;17.05;75.92;98575.22;7385474;19;20014;-76
2022/10/26 09:45:43;;;;;;;6.55;3.17;;;;;;;17.08;76.55;98580.16;7384078;19;20039;-76
2022/10/26 09:48:14;;;;;;;5.43;2.60;;;;;;;17.11;77.22;98587.81;7382311;19;20422;-76
2022/10/26 09:50:45;;;;;;;7.03;2.70;;;;;;;17.17;77.61;98586.22;7380683;19;20015;-76
2022/10/26 09:53:12;;;;;;;9.73;3.15;;;;;;;17.28;77.85;98579.53;7383018;19;20029;-76
2022/10/26 09:55:45;;;;;;;9.82;3.85;;;;;;;17.38;77.27;98579.16;7384702;19;20039;-76
2022/10/26 09:58:12;;;;;;;;;;;;;;;17.52;76.42;98581.75;7379854;19;20044;-76
2022/10/26 10:00:39;;;;;;;9.60;3.10;;;;;;;17.61;76.11;98584.28;7383109;19;20291;-76
2022/10/26 10:03:24;;;;;;;15.18;3.42;;;;;;;17.75;75.71;98594.88;7385942;19;20031;-75
2022/10/26 10:05:51;;;;;;;6.35;3.15;;;;;;;17.91;76.33;98588.41;7384360;19;20448;-75
2022/10/26 10:08:23;;;;;;;6.22;2.85;;;;;;;18.08;76.01;98577.38;7384551;19;20035;-75
2022/10/26 10:11:07;;;;;;;8.05;2.60;;;;;;;18.12;74.24;98579.47;7388847;19;20349;-75
2022/10/26 10:13:44;;;;;;;6.13;2.55;;;;;;;18.16;74.20;98575.34;7390179;19;20011;-75
2022/10/26 10:16:22;;;;;;;5.38;2.50;;;;;;;18.28;74.86;98586.31;7390309;19;20388;-75
2022/10/26 10:18:54;;;;;;;11.82;3.42;;;;;;;18.34;74.98;98582.84;7391695;19;20038;-75
2022/10/26 10:21:34;;;;;;;8.57;3.15;;;;;;;18.37;74.08;98582.44;7390931;19;20018;-75
2022/10/26 10:24:01;;;;;;;6.60;2.65;;;;;;;18.48;73.91;98578.34;7385597;19;20010;-76
2022/10/26 10:26:28;;;;;;;12.32;3.35;;;;;;;18.52;73.69;98584.97;7392007;19;20015;-75
2022/10/26 10:28:59;;;;;;;9.05;2.40;;;;;;;18.59;74.47;98587.66;7394163;19;20014;-75
2022/10/26 10:31:31;;;;;;;5.43;2.53;;;;;;;18.70;74.65;98592.44;7391180;19;20050;-75
2022/10/26 10:33:58;;;;;;;11.20;3.03;;;;;;;18.76;74.47;98590.81;7392744;19;20014;-75
2022/10/26 10:36:30;;;;;;;7.20;3.00;;;;;;;18.82;74.22;98601.53;7392760;19;20007;-75
2022/10/26 10:38:57;;;;;;;5.63;2.53;;;;;;;18.86;73.94;98597.44;7388991;19;20359;-75
2022/10/26 10:41:26;;;;;;;8.00;2.80;;;;;;;19.01;74.24;98604.47;7386065;19;20057;-75
2022/10/26 10:44:23;;;;;;;9.10;2.85;;;;;;;19.08;73.87;98610.66;7390412;19;20010;-75
2022/10/26 10:46:59;;;;;;;7.50;2.83;;;;;;;19.10;73.46;98611.28;7389927;19;20014;-75
2022/10/26 10:49:27;;;;;;;10.15;2.85;;;;;;;19.06;72.51;98608.22;7386181;19;20021;-76
2022/10/26 10:51:54;;;;;;;6.10;2.83;;;;;;;19.05;73.02;98611.06;7389016;19;20527;-75
2022/10/26 10:54:26;;;;;;;14.07;3.28;;;;;;;19.02;73.68;98612.31;7390876;19;20047;-76
2022/10/26 10:56:56;;;;;;;8.63;3.20;;;;;;;18.91;73.81;98615.59;7381734;19;20026;-75
2022/10/26 10:59:57;;;;;;;8.63;3.00;;;;;;;18.83;74.04;98611.25;7388223;19;20514;-75
2022/10/26 11:02:51;;;;;;;6.47;3.10;;;;;;;18.78;75.24;98608.34;7390827;19;20015;-75
2022/10/26 11:05:22;;;;;;;10.15;3.38;;;;;;;18.80;74.11;98614.34;7386862;19;20014;-75
2022/10/26 11:08:12;;;;;;;10.93;3.38;;;;;;;18.75;72.92;98618.66;7389431;19;20014;-75
2022/10/26 11:10:46;;;;;;;8.90;2.90;;;;;;;18.79;73.36;98610.00;7389183;19;20014;-74
2022/10/26 11:13:47;;;;;;;14.40;3.72;;;;;;;18.85;72.65;98614.56;7385185;19;20010;-75
2022/10/26 11:16:20;;;;;;;5.95;2.45;;;;;;;18.84;74.19;98620.94;7385357;19;20049;-74
2022/10/26 11:18:54;;;;;;;;;;;;;;;18.82;74.93;98623.00;7388586;19;20042;-75
2022/10/26 11:21:27;;;;;;;7.70;3.03;;;;;;;18.94;75.22;98625.09;7388642;19;19918;-74
2022/10/26 11:24:09;;;;;;;10.38;3.20;;;;;;;19.10;74.68;98618.53;7389499;19;20018;-75
2022/10/26 11:27:00;;;;;;;8.93;2.85;;;;;;;19.34;72.36;98617.09;7384406;19;20343;-75
2022/10/26 11:30:06;;;;;;;7.00;2.70;;;;;;;19.59;70.57;98610.06;7389004;19;20469;-75
2022/10/26 11:32:45;;;;;;;8.43;2.80;;;;;;;19.73;71.54;98616.28;7378678;19;20032;-75
2022/10/26 11:35:37;;;;;;;5.13;2.63;;;;;;;19.79;71.32;98622.66;7387474;19;20043;-75
2022/10/26 11:38:11;;;;;;;12.32;2.65;;;;;;;19.77;68.71;98625.53;7386574;19;20010;-75
2022/10/26 11:40:51;;;;;;;10.82;2.15;;;;;;;19.93;68.55;98624.28;7388963;19;20028;-75
2022/10/26 11:43:23;;;;;;;10.18;2.45;;;;;;;20.13;67.11;98619.69;7384916;19;20121;-76
2022/10/26 11:46:28;;;;;;;10.00;2.47;;;;;;;20.41;68.23;98621.25;7382744;19;20781;-76
2022/10/26 11:49:32;;;;;;;7.22;1.88;;;;;;;20.54;65.74;98631.97;7381629;19;20007;-74
2022/10/26 11:52:18;;;;;;;7.60;2.40;;;;;;;20.68;64.04;98621.97;7387832;19;20021;-75
2022/10/26 11:54:51;;;;;;;7.60;2.50;;;;;;;20.60;64.61;98627.59;7385834;19;20020;-75
2022/10/26 11:57:18;;;;;;;4.60;1.80;;;;;;;20.69;64.94;98633.56;7390511;19;20073;-75